sensor_id;sensor_type;location;lat;lon;timestamp;P1;durP1;ratioP1;P2;durP2;ratioP2
56161;SDS011;42045;52.986;6.014;2023-06-04T00:01:03;10.85;;;5.75;;
56161;SDS011;42045;52.986;6.014;2023-06-04T00:03:30;10.52;;;6.63;;
56161;SDS011;42045;52.986;6.014;2023-06-04T00:05:56;11.68;;;5.82;;
56161;SDS011;42045;52.986;6.014;2023-06-04T00:08:22;9.70;;;5.82;;
56161;SDS011;42045;52.986;6.014;2023-06-04T00:10:48;13.98;;;7.05;;
56161;SDS011;42045;52.986;6.014;2023-06-04T00:13:13;11.88;;;6.60;;
56161;SDS011;42045;52.986;6.014;2023-06-04T00:15:39;10.38;;;5.82;;
56161;SDS011;42045;52.986;6.014;2023-06-04T00:18:05;10.95;;;6.22;;
56161;SDS011;42045;52.986;6.014;2023-06-04T00:20:31;11.98;;;6.65;;
56161;SDS011;42045;52.986;6.014;2023-06-04T00:22:56;12.77;;;5.50;;
56161;SDS011;42045;52.986;6.014;2023-06-04T00:25:22;11.88;;;7.35;;
56161;SDS011;42045;52.986;6.014;2023-06-04T00:27:48;8.95;;;6.22;;
56161;SDS011;42045;52.986;6.014;2023-06-04T00:30:13;15.60;;;6.68;;
56161;SDS011;42045;52.986;6.014;2023-06-04T00:32:39;9.93;;;6.20;;
56161;SDS011;42045;52.986;6.014;2023-06-04T00:35:05;7.75;;;6.22;;
56161;SDS011;42045;52.986;6.014;2023-06-04T00:37:31;10.15;;;6.43;;
56161;SDS011;42045;52.986;6.014;2023-06-04T00:39:58;10.80;;;6.43;;
56161;SDS011;42045;52.986;6.014;2023-06-04T00:42:24;9.82;;;6.88;;
56161;SDS011;42045;52.986;6.014;2023-06-04T00:44:50;14.27;;;6.88;;
56161;SDS011;42045;52.986;6.014;2023-06-04T00:47:16;10.75;;;5.95;;
56161;SDS011;42045;52.986;6.014;2023-06-04T00:49:43;14.15;;;6.10;;
56161;SDS011;42045;52.986;6.014;2023-06-04T00:52:10;9.85;;;5.70;;
56161;SDS011;42045;52.986;6.014;2023-06-04T00:54:40;10.45;;;5.80;;
56161;SDS011;42045;52.986;6.014;2023-06-04T00:57:06;9.95;;;6.43;;
56161;SDS011;42045;52.986;6.014;2023-06-04T00:59:34;11.07;;;6.72;;
56161;SDS011;42045;52.986;6.014;2023-06-04T01:02:06;9.32;;;5.82;;
56161;SDS011;42045;52.986;6.014;2023-06-04T01:07:05;11.95;;;5.88;;
56161;SDS011;42045;52.986;6.014;2023-06-04T01:09:33;11.68;;;6.25;;
56161;SDS011;42045;52.986;6.014;2023-06-04T01:12:03;11.73;;;6.00;;
56161;SDS011;42045;52.986;6.014;2023-06-04T01:14:30;13.23;;;6.68;;
56161;SDS011;42045;52.986;6.014;2023-06-04T01:25:14;11.40;;;6.30;;
56161;SDS011;42045;52.986;6.014;2023-06-04T01:27:49;12.52;;;7.15;;
56161;SDS011;42045;52.986;6.014;2023-06-04T01:30:18;12.23;;;6.50;;
56161;SDS011;42045;52.986;6.014;2023-06-04T01:32:48;9.43;;;6.60;;
56161;SDS011;42045;52.986;6.014;2023-06-04T01:35:14;12.38;;;6.13;;
56161;SDS011;42045;52.986;6.014;2023-06-04T01:37:39;13.00;;;6.35;;
56161;SDS011;42045;52.986;6.014;2023-06-04T01:40:06;9.57;;;6.03;;
56161;SDS011;42045;52.986;6.014;2023-06-04T01:42:36;14.38;;;6.70;;
56161;SDS011;42045;52.986;6.014;2023-06-04T01:45:02;7.43;;;5.97;;
56161;SDS011;42045;52.986;6.014;2023-06-04T01:47:28;10.98;;;6.13;;
56161;SDS011;42045;52.986;6.014;2023-06-04T01:49:53;13.38;;;6.35;;
56161;SDS011;42045;52.986;6.014;2023-06-04T01:52:19;14.32;;;7.25;;
56161;SDS011;42045;52.986;6.014;2023-06-04T01:54:46;11.57;;;6.57;;
56161;SDS011;42045;52.986;6.014;2023-06-04T01:57:17;17.27;;;6.78;;
56161;SDS011;42045;52.986;6.014;2023-06-04T01:59:47;10.27;;;6.47;;
56161;SDS011;42045;52.986;6.014;2023-06-04T02:02:13;11.27;;;6.80;;
56161;SDS011;42045;52.986;6.014;2023-06-04T02:04:40;10.35;;;6.55;;
56161;SDS011;42045;52.986;6.014;2023-06-04T02:07:10;11.02;;;6.85;;
56161;SDS011;42045;52.986;6.014;2023-06-04T02:09:38;16.45;;;6.65;;
56161;SDS011;42045;52.986;6.014;2023-06-04T02:12:05;10.95;;;5.55;;
56161;SDS011;42045;52.986;6.014;2023-06-04T02:14:31;12.98;;;6.90;;
56161;SDS011;42045;52.986;6.014;2023-06-04T02:16:56;9.90;;;6.25;;
56161;SDS011;42045;52.986;6.014;2023-06-04T02:19:23;12.70;;;8.02;;
56161;SDS011;42045;52.986;6.014;2023-06-04T02:21:51;15.40;;;5.93;;
56161;SDS011;42045;52.986;6.014;2023-06-04T02:24:17;11.77;;;6.78;;
56161;SDS011;42045;52.986;6.014;2023-06-04T02:26:43;10.05;;;5.70;;
56161;SDS011;42045;52.986;6.014;2023-06-04T02:29:08;12.98;;;6.47;;
56161;SDS011;42045;52.986;6.014;2023-06-04T02:31:34;11.40;;;6.45;;
56161;SDS011;42045;52.986;6.014;2023-06-04T02:34:00;10.57;;;7.22;;
56161;SDS011;42045;52.986;6.014;2023-06-04T02:36:25;15.73;;;7.10;;
56161;SDS011;42045;52.986;6.014;2023-06-04T02:38:51;14.35;;;6.07;;
56161;SDS011;42045;52.986;6.014;2023-06-04T02:41:17;15.13;;;6.22;;
56161;SDS011;42045;52.986;6.014;2023-06-04T02:43:44;12.32;;;6.43;;
56161;SDS011;42045;52.986;6.014;2023-06-04T02:46:09;12.40;;;6.43;;
56161;SDS011;42045;52.986;6.014;2023-06-04T02:48:35;8.82;;;6.10;;
56161;SDS011;42045;52.986;6.014;2023-06-04T02:51:01;12.02;;;6.65;;
56161;SDS011;42045;52.986;6.014;2023-06-04T02:53:26;10.77;;;5.95;;
56161;SDS011;42045;52.986;6.014;2023-06-04T02:55:52;11.20;;;6.32;;
56161;SDS011;42045;52.986;6.014;2023-06-04T02:58:18;11.57;;;5.75;;
56161;SDS011;42045;52.986;6.014;2023-06-04T03:00:44;10.18;;;6.40;;
56161;SDS011;42045;52.986;6.014;2023-06-04T03:03:10;15.38;;;6.05;;
56161;SDS011;42045;52.986;6.014;2023-06-04T03:05:35;12.30;;;6.68;;
56161;SDS011;42045;52.986;6.014;2023-06-04T03:08:04;12.90;;;6.63;;
56161;SDS011;42045;52.986;6.014;2023-06-04T03:10:30;12.63;;;6.00;;
56161;SDS011;42045;52.986;6.014;2023-06-04T03:12:56;9.68;;;5.95;;
56161;SDS011;42045;52.986;6.014;2023-06-04T03:15:21;8.90;;;6.03;;
56161;SDS011;42045;52.986;6.014;2023-06-04T03:17:47;8.93;;;6.28;;
56161;SDS011;42045;52.986;6.014;2023-06-04T03:20:13;15.23;;;6.20;;
56161;SDS011;42045;52.986;6.014;2023-06-04T03:22:39;14.45;;;5.80;;
56161;SDS011;42045;52.986;6.014;2023-06-04T03:25:05;8.15;;;5.70;;
56161;SDS011;42045;52.986;6.014;2023-06-04T03:27:31;9.70;;;5.55;;
56161;SDS011;42045;52.986;6.014;2023-06-04T03:29:57;9.10;;;6.05;;
56161;SDS011;42045;52.986;6.014;2023-06-04T03:32:23;9.10;;;5.68;;
56161;SDS011;42045;52.986;6.014;2023-06-04T03:34:49;9.13;;;5.30;;
56161;SDS011;42045;52.986;6.014;2023-06-04T03:37:14;8.55;;;5.32;;
56161;SDS011;42045;52.986;6.014;2023-06-04T03:39:41;10.95;;;5.97;;
56161;SDS011;42045;52.986;6.014;2023-06-04T03:42:07;11.55;;;6.38;;
56161;SDS011;42045;52.986;6.014;2023-06-04T03:44:32;9.48;;;5.68;;
56161;SDS011;42045;52.986;6.014;2023-06-04T03:46:58;8.05;;;6.82;;
56161;SDS011;42045;52.986;6.014;2023-06-04T03:49:23;8.63;;;6.53;;
56161;SDS011;42045;52.986;6.014;2023-06-04T03:51:49;10.13;;;5.53;;
56161;SDS011;42045;52.986;6.014;2023-06-04T03:54:16;8.77;;;5.90;;
56161;SDS011;42045;52.986;6.014;2023-06-04T03:56:42;10.15;;;5.53;;
56161;SDS011;42045;52.986;6.014;2023-06-04T03:59:09;15.50;;;6.43;;
56161;SDS011;42045;52.986;6.014;2023-06-04T04:01:34;11.30;;;5.30;;
56161;SDS011;42045;52.986;6.014;2023-06-04T04:04:00;12.77;;;6.03;;
56161;SDS011;42045;52.986;6.014;2023-06-04T04:06:26;11.93;;;4.88;;
56161;SDS011;42045;52.986;6.014;2023-06-04T04:08:51;7.68;;;5.25;;
56161;SDS011;42045;52.986;6.014;2023-06-04T04:11:18;8.90;;;4.75;;
56161;SDS011;42045;52.986;6.014;2023-06-04T04:13:44;7.00;;;4.40;;
56161;SDS011;42045;52.986;6.014;2023-06-04T04:16:11;8.20;;;4.55;;
56161;SDS011;42045;52.986;6.014;2023-06-04T04:18:37;5.18;;;4.22;;
56161;SDS011;42045;52.986;6.014;2023-06-04T04:21:03;8.23;;;4.78;;
56161;SDS011;42045;52.986;6.014;2023-06-04T04:23:29;17.70;;;5.85;;
56161;SDS011;42045;52.986;6.014;2023-06-04T04:25:57;8.32;;;4.85;;
56161;SDS011;42045;52.986;6.014;2023-06-04T04:28:24;8.18;;;4.82;;
56161;SDS011;42045;52.986;6.014;2023-06-04T04:30:53;9.85;;;4.43;;
56161;SDS011;42045;52.986;6.014;2023-06-04T04:33:19;8.85;;;4.88;;
56161;SDS011;42045;52.986;6.014;2023-06-04T04:35:45;9.85;;;5.30;;
56161;SDS011;42045;52.986;6.014;2023-06-04T04:38:13;7.30;;;4.95;;
56161;SDS011;42045;52.986;6.014;2023-06-04T04:40:38;10.20;;;4.88;;
56161;SDS011;42045;52.986;6.014;2023-06-04T04:43:04;8.93;;;4.97;;
56161;SDS011;42045;52.986;6.014;2023-06-04T04:45:30;8.30;;;4.80;;
56161;SDS011;42045;52.986;6.014;2023-06-04T04:47:56;7.38;;;4.38;;
56161;SDS011;42045;52.986;6.014;2023-06-04T04:50:21;6.75;;;4.40;;
56161;SDS011;42045;52.986;6.014;2023-06-04T04:52:47;14.30;;;5.60;;
56161;SDS011;42045;52.986;6.014;2023-06-04T04:55:13;7.88;;;5.20;;
56161;SDS011;42045;52.986;6.014;2023-06-04T04:57:38;11.88;;;5.50;;
56161;SDS011;42045;52.986;6.014;2023-06-04T05:00:05;11.88;;;5.30;;
56161;SDS011;42045;52.986;6.014;2023-06-04T05:02:34;12.50;;;6.15;;
56161;SDS011;42045;52.986;6.014;2023-06-04T05:05:00;9.25;;;5.15;;
56161;SDS011;42045;52.986;6.014;2023-06-04T05:07:26;12.68;;;5.60;;
56161;SDS011;42045;52.986;6.014;2023-06-04T05:09:51;12.43;;;6.35;;
56161;SDS011;42045;52.986;6.014;2023-06-04T05:12:17;13.10;;;5.90;;
56161;SDS011;42045;52.986;6.014;2023-06-04T05:14:43;13.18;;;5.63;;
56161;SDS011;42045;52.986;6.014;2023-06-04T05:17:10;10.55;;;5.25;;
56161;SDS011;42045;52.986;6.014;2023-06-04T05:19:36;10.32;;;5.35;;
56161;SDS011;42045;52.986;6.014;2023-06-04T05:22:02;12.40;;;5.35;;
56161;SDS011;42045;52.986;6.014;2023-06-04T05:24:28;8.60;;;4.90;;
56161;SDS011;42045;52.986;6.014;2023-06-04T05:26:55;12.02;;;5.20;;
56161;SDS011;42045;52.986;6.014;2023-06-04T05:29:22;11.00;;;5.07;;
56161;SDS011;42045;52.986;6.014;2023-06-04T05:31:48;11.43;;;5.70;;
56161;SDS011;42045;52.986;6.014;2023-06-04T05:34:14;10.50;;;5.38;;
56161;SDS011;42045;52.986;6.014;2023-06-04T05:36:42;7.30;;;4.60;;
56161;SDS011;42045;52.986;6.014;2023-06-04T05:39:08;10.40;;;5.13;;
56161;SDS011;42045;52.986;6.014;2023-06-04T05:41:35;11.48;;;5.60;;
56161;SDS011;42045;52.986;6.014;2023-06-04T05:44:01;8.80;;;4.80;;
56161;SDS011;42045;52.986;6.014;2023-06-04T05:46:28;8.63;;;5.30;;
56161;SDS011;42045;52.986;6.014;2023-06-04T05:48:53;10.27;;;4.95;;
56161;SDS011;42045;52.986;6.014;2023-06-04T05:51:19;10.07;;;5.03;;
56161;SDS011;42045;52.986;6.014;2023-06-04T05:53:45;9.75;;;5.43;;
56161;SDS011;42045;52.986;6.014;2023-06-04T05:56:12;8.40;;;4.63;;
56161;SDS011;42045;52.986;6.014;2023-06-04T05:58:37;8.50;;;4.88;;
56161;SDS011;42045;52.986;6.014;2023-06-04T06:01:03;12.65;;;4.93;;
56161;SDS011;42045;52.986;6.014;2023-06-04T06:03:29;9.13;;;5.65;;
56161;SDS011;42045;52.986;6.014;2023-06-04T06:05:55;8.43;;;5.55;;
56161;SDS011;42045;52.986;6.014;2023-06-04T06:08:22;7.20;;;4.63;;
56161;SDS011;42045;52.986;6.014;2023-06-04T06:10:48;8.05;;;5.15;;
56161;SDS011;42045;52.986;6.014;2023-06-04T06:13:13;9.63;;;4.75;;
56161;SDS011;42045;52.986;6.014;2023-06-04T06:15:40;7.88;;;4.22;;
56161;SDS011;42045;52.986;6.014;2023-06-04T06:18:05;10.48;;;4.30;;
56161;SDS011;42045;52.986;6.014;2023-06-04T06:20:31;7.93;;;4.18;;
56161;SDS011;42045;52.986;6.014;2023-06-04T06:22:57;7.95;;;4.40;;
56161;SDS011;42045;52.986;6.014;2023-06-04T06:25:23;6.65;;;4.30;;
56161;SDS011;42045;52.986;6.014;2023-06-04T06:27:49;9.30;;;4.70;;
56161;SDS011;42045;52.986;6.014;2023-06-04T06:30:15;7.85;;;4.68;;
56161;SDS011;42045;52.986;6.014;2023-06-04T06:32:41;11.38;;;4.45;;
56161;SDS011;42045;52.986;6.014;2023-06-04T06:35:07;8.07;;;4.20;;
56161;SDS011;42045;52.986;6.014;2023-06-04T06:37:33;8.65;;;4.47;;
56161;SDS011;42045;52.986;6.014;2023-06-04T06:39:59;5.63;;;3.92;;
56161;SDS011;42045;52.986;6.014;2023-06-04T06:42:25;8.23;;;4.63;;
56161;SDS011;42045;52.986;6.014;2023-06-04T06:44:50;8.65;;;4.03;;
56161;SDS011;42045;52.986;6.014;2023-06-04T06:47:16;8.27;;;4.28;;
56161;SDS011;42045;52.986;6.014;2023-06-04T06:49:41;7.72;;;4.70;;
56161;SDS011;42045;52.986;6.014;2023-06-04T06:52:08;7.63;;;3.65;;
56161;SDS011;42045;52.986;6.014;2023-06-04T06:54:34;7.45;;;3.65;;
56161;SDS011;42045;52.986;6.014;2023-06-04T06:57:00;7.47;;;3.78;;
56161;SDS011;42045;52.986;6.014;2023-06-04T06:59:26;6.53;;;3.72;;
56161;SDS011;42045;52.986;6.014;2023-06-04T07:01:52;8.60;;;4.40;;
56161;SDS011;42045;52.986;6.014;2023-06-04T07:04:18;7.35;;;4.03;;
56161;SDS011;42045;52.986;6.014;2023-06-04T07:06:43;18.63;;;4.75;;
56161;SDS011;42045;52.986;6.014;2023-06-04T07:09:09;25.02;;;4.65;;
56161;SDS011;42045;52.986;6.014;2023-06-04T07:11:35;12.63;;;3.95;;
56161;SDS011;42045;52.986;6.014;2023-06-04T07:14:01;5.95;;;3.38;;
56161;SDS011;42045;52.986;6.014;2023-06-04T07:16:28;7.93;;;3.83;;
56161;SDS011;42045;52.986;6.014;2023-06-04T07:18:53;8.25;;;4.20;;
56161;SDS011;42045;52.986;6.014;2023-06-04T07:21:19;6.90;;;3.28;;
56161;SDS011;42045;52.986;6.014;2023-06-04T07:23:47;9.07;;;3.35;;
56161;SDS011;42045;52.986;6.014;2023-06-04T07:26:15;8.88;;;3.60;;
56161;SDS011;42045;52.986;6.014;2023-06-04T07:28:41;7.20;;;3.30;;
56161;SDS011;42045;52.986;6.014;2023-06-04T07:31:07;5.63;;;2.90;;
56161;SDS011;42045;52.986;6.014;2023-06-04T07:33:32;9.48;;;3.90;;
56161;SDS011;42045;52.986;6.014;2023-06-04T07:35:58;7.28;;;3.58;;
56161;SDS011;42045;52.986;6.014;2023-06-04T07:38:25;10.57;;;3.53;;
56161;SDS011;42045;52.986;6.014;2023-06-04T07:40:52;5.60;;;3.15;;
56161;SDS011;42045;52.986;6.014;2023-06-04T07:43:17;8.02;;;3.58;;
56161;SDS011;42045;52.986;6.014;2023-06-04T07:45:43;8.95;;;3.70;;
56161;SDS011;42045;52.986;6.014;2023-06-04T07:48:09;6.07;;;3.28;;
56161;SDS011;42045;52.986;6.014;2023-06-04T07:50:36;7.80;;;3.28;;
56161;SDS011;42045;52.986;6.014;2023-06-04T07:53:01;7.85;;;3.22;;
56161;SDS011;42045;52.986;6.014;2023-06-04T07:55:27;5.55;;;2.95;;
56161;SDS011;42045;52.986;6.014;2023-06-04T07:57:53;8.30;;;3.60;;
56161;SDS011;42045;52.986;6.014;2023-06-04T08:00:18;6.55;;;3.00;;
56161;SDS011;42045;52.986;6.014;2023-06-04T08:02:44;8.15;;;3.10;;
56161;SDS011;42045;52.986;6.014;2023-06-04T08:05:10;8.25;;;3.53;;
56161;SDS011;42045;52.986;6.014;2023-06-04T08:07:38;8.23;;;3.42;;
56161;SDS011;42045;52.986;6.014;2023-06-04T08:10:05;7.85;;;3.60;;
56161;SDS011;42045;52.986;6.014;2023-06-04T08:12:31;7.90;;;4.00;;
56161;SDS011;42045;52.986;6.014;2023-06-04T08:14:57;9.02;;;3.15;;
56161;SDS011;42045;52.986;6.014;2023-06-04T08:17:23;8.73;;;3.15;;
56161;SDS011;42045;52.986;6.014;2023-06-04T08:19:49;7.50;;;3.45;;
56161;SDS011;42045;52.986;6.014;2023-06-04T08:22:15;8.40;;;3.45;;
56161;SDS011;42045;52.986;6.014;2023-06-04T08:24:41;5.38;;;3.08;;
56161;SDS011;42045;52.986;6.014;2023-06-04T08:27:06;6.25;;;2.90;;
56161;SDS011;42045;52.986;6.014;2023-06-04T08:29:34;8.13;;;3.05;;
56161;SDS011;42045;52.986;6.014;2023-06-04T08:32:01;8.32;;;3.33;;
56161;SDS011;42045;52.986;6.014;2023-06-04T08:34:28;8.23;;;3.53;;
56161;SDS011;42045;52.986;6.014;2023-06-04T08:36:54;7.10;;;3.20;;
56161;SDS011;42045;52.986;6.014;2023-06-04T08:39:20;7.63;;;3.17;;
56161;SDS011;42045;52.986;6.014;2023-06-04T08:41:51;7.85;;;3.38;;
56161;SDS011;42045;52.986;6.014;2023-06-04T08:44:19;5.60;;;2.95;;
56161;SDS011;42045;52.986;6.014;2023-06-04T08:46:45;7.47;;;3.17;;
56161;SDS011;42045;52.986;6.014;2023-06-04T08:49:15;7.95;;;3.03;;
56161;SDS011;42045;52.986;6.014;2023-06-04T08:51:43;5.40;;;2.70;;
56161;SDS011;42045;52.986;6.014;2023-06-04T08:54:09;6.80;;;2.50;;
56161;SDS011;42045;52.986;6.014;2023-06-04T08:56:35;6.82;;;2.88;;
56161;SDS011;42045;52.986;6.014;2023-06-04T08:59:03;9.77;;;3.22;;
56161;SDS011;42045;52.986;6.014;2023-06-04T09:01:31;4.55;;;2.25;;
56161;SDS011;42045;52.986;6.014;2023-06-04T09:03:59;5.80;;;2.92;;
56161;SDS011;42045;52.986;6.014;2023-06-04T09:06:26;7.10;;;3.47;;
56161;SDS011;42045;52.986;6.014;2023-06-04T09:08:54;6.25;;;3.00;;
56161;SDS011;42045;52.986;6.014;2023-06-04T09:11:23;9.40;;;2.75;;
56161;SDS011;42045;52.986;6.014;2023-06-04T09:13:52;5.20;;;2.53;;
56161;SDS011;42045;52.986;6.014;2023-06-04T09:16:18;7.03;;;2.55;;
56161;SDS011;42045;52.986;6.014;2023-06-04T09:18:44;8.35;;;2.80;;
56161;SDS011;42045;52.986;6.014;2023-06-04T09:21:10;8.90;;;3.20;;
56161;SDS011;42045;52.986;6.014;2023-06-04T09:23:36;6.53;;;3.28;;
56161;SDS011;42045;52.986;6.014;2023-06-04T09:26:09;5.57;;;2.60;;
56161;SDS011;42045;52.986;6.014;2023-06-04T09:28:36;5.13;;;2.88;;
56161;SDS011;42045;52.986;6.014;2023-06-04T09:31:07;6.18;;;3.17;;
56161;SDS011;42045;52.986;6.014;2023-06-04T09:33:43;6.82;;;3.17;;
56161;SDS011;42045;52.986;6.014;2023-06-04T09:36:09;6.43;;;2.55;;
56161;SDS011;42045;52.986;6.014;2023-06-04T09:38:35;4.32;;;2.95;;
56161;SDS011;42045;52.986;6.014;2023-06-04T09:41:01;7.15;;;2.63;;
56161;SDS011;42045;52.986;6.014;2023-06-04T09:43:31;5.45;;;2.20;;
56161;SDS011;42045;52.986;6.014;2023-06-04T09:46:10;7.13;;;3.00;;
56161;SDS011;42045;52.986;6.014;2023-06-04T09:48:40;4.35;;;2.20;;
56161;SDS011;42045;52.986;6.014;2023-06-04T09:51:10;7.60;;;2.42;;
56161;SDS011;42045;52.986;6.014;2023-06-04T09:53:54;5.95;;;2.58;;
56161;SDS011;42045;52.986;6.014;2023-06-04T09:56:21;4.75;;;2.47;;
56161;SDS011;42045;52.986;6.014;2023-06-04T09:58:48;6.30;;;2.78;;
56161;SDS011;42045;52.986;6.014;2023-06-04T10:01:15;5.40;;;2.63;;
56161;SDS011;42045;52.986;6.014;2023-06-04T10:03:41;4.85;;;2.33;;
56161;SDS011;42045;52.986;6.014;2023-06-04T10:06:12;5.55;;;2.80;;
56161;SDS011;42045;52.986;6.014;2023-06-04T10:08:41;5.97;;;2.80;;
56161;SDS011;42045;52.986;6.014;2023-06-04T10:11:07;8.18;;;2.70;;
56161;SDS011;42045;52.986;6.014;2023-06-04T10:13:38;5.68;;;2.40;;
56161;SDS011;42045;52.986;6.014;2023-06-04T10:16:05;6.35;;;2.45;;
56161;SDS011;42045;52.986;6.014;2023-06-04T10:18:32;6.88;;;2.85;;
56161;SDS011;42045;52.986;6.014;2023-06-04T10:20:59;4.57;;;2.50;;
56161;SDS011;42045;52.986;6.014;2023-06-04T10:23:26;7.10;;;2.20;;
56161;SDS011;42045;52.986;6.014;2023-06-04T10:25:54;3.78;;;2.10;;
56161;SDS011;42045;52.986;6.014;2023-06-04T10:28:21;6.68;;;2.67;;
56161;SDS011;42045;52.986;6.014;2023-06-04T10:30:48;5.97;;;2.28;;
56161;SDS011;42045;52.986;6.014;2023-06-04T10:33:18;5.82;;;2.50;;
56161;SDS011;42045;52.986;6.014;2023-06-04T10:35:49;3.72;;;2.45;;
56161;SDS011;42045;52.986;6.014;2023-06-04T10:38:15;4.82;;;2.95;;
56161;SDS011;42045;52.986;6.014;2023-06-04T10:40:43;5.35;;;2.85;;
56161;SDS011;42045;52.986;6.014;2023-06-04T10:43:13;3.58;;;2.10;;
56161;SDS011;42045;52.986;6.014;2023-06-04T10:45:41;4.45;;;2.40;;
56161;SDS011;42045;52.986;6.014;2023-06-04T10:48:08;3.85;;;2.30;;
56161;SDS011;42045;52.986;6.014;2023-06-04T10:50:47;4.43;;;2.40;;
56161;SDS011;42045;52.986;6.014;2023-06-04T10:53:13;7.32;;;3.05;;
56161;SDS011;42045;52.986;6.014;2023-06-04T10:55:43;5.40;;;3.20;;
56161;SDS011;42045;52.986;6.014;2023-06-04T10:58:10;7.90;;;3.67;;
56161;SDS011;42045;52.986;6.014;2023-06-04T11:00:40;4.82;;;2.90;;
56161;SDS011;42045;52.986;6.014;2023-06-04T11:03:07;6.25;;;2.70;;
56161;SDS011;42045;52.986;6.014;2023-06-04T11:05:38;4.75;;;2.47;;
56161;SDS011;42045;52.986;6.014;2023-06-04T11:08:05;3.65;;;1.95;;
56161;SDS011;42045;52.986;6.014;2023-06-04T11:10:33;10.02;;;2.72;;
56161;SDS011;42045;52.986;6.014;2023-06-04T11:13:08;5.40;;;2.45;;
56161;SDS011;42045;52.986;6.014;2023-06-04T11:15:44;4.13;;;2.38;;
56161;SDS011;42045;52.986;6.014;2023-06-04T11:18:15;5.40;;;2.30;;
56161;SDS011;42045;52.986;6.014;2023-06-04T11:20:43;6.25;;;2.95;;
56161;SDS011;42045;52.986;6.014;2023-06-04T11:23:14;5.82;;;2.58;;
56161;SDS011;42045;52.986;6.014;2023-06-04T11:25:42;3.67;;;2.58;;
56161;SDS011;42045;52.986;6.014;2023-06-04T11:28:14;4.32;;;2.17;;
56161;SDS011;42045;52.986;6.014;2023-06-04T11:30:42;5.03;;;2.30;;
56161;SDS011;42045;52.986;6.014;2023-06-04T11:33:07;3.80;;;2.30;;
56161;SDS011;42045;52.986;6.014;2023-06-04T11:35:42;5.53;;;2.45;;
56161;SDS011;42045;52.986;6.014;2023-06-04T11:38:08;6.25;;;2.78;;
56161;SDS011;42045;52.986;6.014;2023-06-04T11:40:34;4.32;;;2.15;;
56161;SDS011;42045;52.986;6.014;2023-06-04T11:43:00;4.80;;;2.50;;
56161;SDS011;42045;52.986;6.014;2023-06-04T11:45:27;5.28;;;2.13;;
56161;SDS011;42045;52.986;6.014;2023-06-04T11:47:55;6.10;;;2.95;;
56161;SDS011;42045;52.986;6.014;2023-06-04T11:50:22;5.80;;;2.50;;
56161;SDS011;42045;52.986;6.014;2023-06-04T11:52:51;5.97;;;2.67;;
56161;SDS011;42045;52.986;6.014;2023-06-04T11:55:18;5.35;;;2.17;;
56161;SDS011;42045;52.986;6.014;2023-06-04T11:57:47;4.72;;;2.20;;
56161;SDS011;42045;52.986;6.014;2023-06-04T12:00:14;7.47;;;2.40;;
56161;SDS011;42045;52.986;6.014;2023-06-04T12:02:52;6.30;;;2.40;;
56161;SDS011;42045;52.986;6.014;2023-06-04T12:05:20;4.97;;;2.95;;
56161;SDS011;42045;52.986;6.014;2023-06-04T12:07:48;6.55;;;2.70;;
56161;SDS011;42045;52.986;6.014;2023-06-04T12:10:18;6.18;;;2.75;;
56161;SDS011;42045;52.986;6.014;2023-06-04T12:12:44;4.47;;;2.75;;
56161;SDS011;42045;52.986;6.014;2023-06-04T12:15:10;5.45;;;2.75;;
56161;SDS011;42045;52.986;6.014;2023-06-04T12:17:36;4.40;;;2.63;;
56161;SDS011;42045;52.986;6.014;2023-06-04T12:20:05;4.35;;;2.40;;
56161;SDS011;42045;52.986;6.014;2023-06-04T12:22:31;6.60;;;2.65;;
56161;SDS011;42045;52.986;6.014;2023-06-04T12:24:57;3.65;;;2.67;;
56161;SDS011;42045;52.986;6.014;2023-06-04T12:27:25;4.82;;;2.38;;
56161;SDS011;42045;52.986;6.014;2023-06-04T12:32:21;6.22;;;2.45;;
56161;SDS011;42045;52.986;6.014;2023-06-04T12:34:47;4.97;;;2.60;;
56161;SDS011;42045;52.986;6.014;2023-06-04T12:37:13;5.88;;;2.78;;
56161;SDS011;42045;52.986;6.014;2023-06-04T12:39:39;3.47;;;2.15;;
56161;SDS011;42045;52.986;6.014;2023-06-04T12:42:05;6.95;;;2.47;;
56161;SDS011;42045;52.986;6.014;2023-06-04T12:44:33;3.58;;;2.22;;
56161;SDS011;42045;52.986;6.014;2023-06-04T12:47:03;5.60;;;2.50;;
56161;SDS011;42045;52.986;6.014;2023-06-04T12:49:29;5.45;;;2.72;;
56161;SDS011;42045;52.986;6.014;2023-06-04T12:51:55;3.85;;;2.33;;
56161;SDS011;42045;52.986;6.014;2023-06-04T12:54:21;4.43;;;2.42;;
56161;SDS011;42045;52.986;6.014;2023-06-04T12:56:46;6.05;;;2.97;;
56161;SDS011;42045;52.986;6.014;2023-06-04T12:59:13;6.38;;;2.85;;
56161;SDS011;42045;52.986;6.014;2023-06-04T13:01:38;4.13;;;2.63;;
56161;SDS011;42045;52.986;6.014;2023-06-04T13:04:04;5.82;;;3.20;;
56161;SDS011;42045;52.986;6.014;2023-06-04T13:06:30;3.70;;;2.30;;
56161;SDS011;42045;52.986;6.014;2023-06-04T13:08:56;10.57;;;3.55;;
56161;SDS011;42045;52.986;6.014;2023-06-04T13:11:22;5.85;;;3.15;;
56161;SDS011;42045;52.986;6.014;2023-06-04T13:13:48;5.28;;;2.88;;
56161;SDS011;42045;52.986;6.014;2023-06-04T13:16:14;5.43;;;2.90;;
56161;SDS011;42045;52.986;6.014;2023-06-04T13:18:39;6.03;;;2.88;;
56161;SDS011;42045;52.986;6.014;2023-06-04T13:21:05;8.20;;;3.30;;
56161;SDS011;42045;52.986;6.014;2023-06-04T13:23:31;5.55;;;3.05;;
56161;SDS011;42045;52.986;6.014;2023-06-04T13:25:56;10.45;;;2.88;;
56161;SDS011;42045;52.986;6.014;2023-06-04T13:28:22;4.43;;;3.17;;
56161;SDS011;42045;52.986;6.014;2023-06-04T13:30:48;4.82;;;2.40;;
56161;SDS011;42045;52.986;6.014;2023-06-04T13:33:14;4.05;;;2.60;;
56161;SDS011;42045;52.986;6.014;2023-06-04T13:35:39;7.18;;;2.75;;
56161;SDS011;42045;52.986;6.014;2023-06-04T13:38:07;5.82;;;2.42;;
56161;SDS011;42045;52.986;6.014;2023-06-04T13:40:36;4.45;;;2.38;;
56161;SDS011;42045;52.986;6.014;2023-06-04T13:43:01;4.20;;;2.38;;
56161;SDS011;42045;52.986;6.014;2023-06-04T13:45:28;5.50;;;2.33;;
56161;SDS011;42045;52.986;6.014;2023-06-04T13:47:53;5.90;;;2.70;;
56161;SDS011;42045;52.986;6.014;2023-06-04T13:50:19;4.97;;;2.45;;
56161;SDS011;42045;52.986;6.014;2023-06-04T13:52:45;7.80;;;2.65;;
56161;SDS011;42045;52.986;6.014;2023-06-04T13:55:11;5.47;;;2.65;;
56161;SDS011;42045;52.986;6.014;2023-06-04T13:57:38;4.10;;;2.38;;
56161;SDS011;42045;52.986;6.014;2023-06-04T14:00:04;4.32;;;2.20;;
56161;SDS011;42045;52.986;6.014;2023-06-04T14:02:32;7.45;;;2.40;;
56161;SDS011;42045;52.986;6.014;2023-06-04T14:04:58;3.95;;;2.00;;
56161;SDS011;42045;52.986;6.014;2023-06-04T14:07:24;6.43;;;2.17;;
56161;SDS011;42045;52.986;6.014;2023-06-04T14:09:49;6.07;;;2.22;;
56161;SDS011;42045;52.986;6.014;2023-06-04T14:12:20;5.07;;;2.20;;
56161;SDS011;42045;52.986;6.014;2023-06-04T14:14:48;6.82;;;2.70;;
56161;SDS011;42045;52.986;6.014;2023-06-04T14:17:15;3.55;;;2.17;;
56161;SDS011;42045;52.986;6.014;2023-06-04T14:19:41;4.05;;;2.25;;
56161;SDS011;42045;52.986;6.014;2023-06-04T14:22:07;5.55;;;2.40;;
56161;SDS011;42045;52.986;6.014;2023-06-04T14:24:33;4.97;;;2.40;;
56161;SDS011;42045;52.986;6.014;2023-06-04T14:26:58;5.38;;;2.35;;
56161;SDS011;42045;52.986;6.014;2023-06-04T14:29:24;6.30;;;2.38;;
56161;SDS011;42045;52.986;6.014;2023-06-04T14:31:50;3.80;;;2.53;;
56161;SDS011;42045;52.986;6.014;2023-06-04T14:34:15;5.07;;;2.40;;
56161;SDS011;42045;52.986;6.014;2023-06-04T14:36:41;6.82;;;2.50;;
56161;SDS011;42045;52.986;6.014;2023-06-04T14:39:07;5.38;;;2.50;;
56161;SDS011;42045;52.986;6.014;2023-06-04T14:41:32;5.97;;;2.47;;
56161;SDS011;42045;52.986;6.014;2023-06-04T14:43:58;6.75;;;2.58;;
56161;SDS011;42045;52.986;6.014;2023-06-04T14:46:24;4.88;;;2.10;;
56161;SDS011;42045;52.986;6.014;2023-06-04T14:48:50;6.40;;;2.30;;
56161;SDS011;42045;52.986;6.014;2023-06-04T14:51:16;5.15;;;2.22;;
56161;SDS011;42045;52.986;6.014;2023-06-04T14:53:42;6.90;;;2.13;;